sensor_id;sensor_type;location;lat;lon;timestamp;temperature;humidity
12771;DHT22;6449;47.666;9.160;2023-05-10T00:00:36;13.70;99.90
12771;DHT22;6449;47.666;9.160;2023-05-10T00:05:30;13.60;99.90
12771;DHT22;6449;47.666;9.160;2023-05-10T00:10:24;13.80;99.90
12771;DHT22;6449;47.666;9.160;2023-05-10T00:15:18;13.70;99.90
12771;DHT22;6449;47.666;9.160;2023-05-10T00:20:11;13.60;99.90
12771;DHT22;6449;47.666;9.160;2023-05-10T00:25:06;13.70;99.90
12771;DHT22;6449;47.666;9.160;2023-05-10T00:30:03;13.70;99.90
12771;DHT22;6449;47.666;9.160;2023-05-10T00:34:57;13.60;99.90
12771;DHT22;6449;47.666;9.160;2023-05-10T00:39:50;13.40;99.90
12771;DHT22;6449;47.666;9.160;2023-05-10T00:44:43;13.40;99.90
12771;DHT22;6449;47.666;9.160;2023-05-10T00:49:40;13.30;99.90
12771;DHT22;6449;47.666;9.160;2023-05-10T00:54:34;13.30;99.90
12771;DHT22;6449;47.666;9.160;2023-05-10T00:59:28;13.30;99.90
12771;DHT22;6449;47.666;9.160;2023-05-10T01:04:22;13.20;99.90
12771;DHT22;6449;47.666;9.160;2023-05-10T01:09:19;13.20;99.90
12771;DHT22;6449;47.666;9.160;2023-05-10T01:14:13;13.10;99.90
12771;DHT22;6449;47.666;9.160;2023-05-10T01:19:14;13.10;99.90
12771;DHT22;6449;47.666;9.160;2023-05-10T01:30:20;13.10;99.90
12771;DHT22;6449;47.666;9.160;2023-05-10T01:35:32;13.00;99.90
12771;DHT22;6449;47.666;9.160;2023-05-10T01:40:37;13.00;99.90
12771;DHT22;6449;47.666;9.160;2023-05-10T01:45:40;13.10;99.90
12771;DHT22;6449;47.666;9.160;2023-05-10T01:50:43;13.00;99.90
12771;DHT22;6449;47.666;9.160;2023-05-10T01:55:43;12.90;99.90
12771;DHT22;6449;47.666;9.160;2023-05-10T02:00:42;12.80;99.90
12771;DHT22;6449;47.666;9.160;2023-05-10T02:05:37;12.70;99.90
12771;DHT22;6449;47.666;9.160;2023-05-10T02:10:34;12.70;99.90
12771;DHT22;6449;47.666;9.160;2023-05-10T02:15:29;12.70;99.90
12771;DHT22;6449;47.666;9.160;2023-05-10T02:20:24;12.80;99.90
12771;DHT22;6449;47.666;9.160;2023-05-10T02:25:20;12.90;99.90
12771;DHT22;6449;47.666;9.160;2023-05-10T02:30:16;13.00;99.90
12771;DHT22;6449;47.666;9.160;2023-05-10T02:35:12;12.90;99.90
12771;DHT22;6449;47.666;9.160;2023-05-10T02:40:07;12.80;99.90
12771;DHT22;6449;47.666;9.160;2023-05-10T02:45:07;12.90;99.90
12771;DHT22;6449;47.666;9.160;2023-05-10T02:50:06;12.90;99.90
12771;DHT22;6449;47.666;9.160;2023-05-10T02:55:02;12.90;99.90
12771;DHT22;6449;47.666;9.160;2023-05-10T02:59:58;12.80;99.90
12771;DHT22;6449;47.666;9.160;2023-05-10T03:04:51;12.90;99.90
12771;DHT22;6449;47.666;9.160;2023-05-10T03:09:46;12.90;99.90
12771;DHT22;6449;47.666;9.160;2023-05-10T03:14:48;12.90;99.90
12771;DHT22;6449;47.666;9.160;2023-05-10T03:19:51;12.90;99.90
12771;DHT22;6449;47.666;9.160;2023-05-10T03:24:49;12.80;99.90
12771;DHT22;6449;47.666;9.160;2023-05-10T03:29:44;12.80;99.90
12771;DHT22;6449;47.666;9.160;2023-05-10T03:34:41;12.90;99.90
12771;DHT22;6449;47.666;9.160;2023-05-10T03:39:36;12.90;99.90
12771;DHT22;6449;47.666;9.160;2023-05-10T03:44:31;12.90;99.90
12771;DHT22;6449;47.666;9.160;2023-05-10T03:49:25;12.90;99.90
12771;DHT22;6449;47.666;9.160;2023-05-10T03:54:18;12.90;99.90
12771;DHT22;6449;47.666;9.160;2023-05-10T03:59:11;12.90;99.90
12771;DHT22;6449;47.666;9.160;2023-05-10T04:04:06;13.00;99.90
12771;DHT22;6449;47.666;9.160;2023-05-10T04:08:59;12.90;99.90
12771;DHT22;6449;47.666;9.160;2023-05-10T04:13:55;12.90;99.90
12771;DHT22;6449;47.666;9.160;2023-05-10T04:18:49;12.90;99.90
12771;DHT22;6449;47.666;9.160;2023-05-10T04:23:43;12.90;99.90
12771;DHT22;6449;47.666;9.160;2023-05-10T04:28:37;12.90;99.90
12771;DHT22;6449;47.666;9.160;2023-05-10T04:33:31;12.90;99.90
12771;DHT22;6449;47.666;9.160;2023-05-10T04:38:24;12.90;99.90
12771;DHT22;6449;47.666;9.160;2023-05-10T04:43:20;13.00;99.90
12771;DHT22;6449;47.666;9.160;2023-05-10T04:48:13;12.90;99.90
12771;DHT22;6449;47.666;9.160;2023-05-10T04:53:06;13.00;99.90
12771;DHT22;6449;47.666;9.160;2023-05-10T04:57:59;13.10;99.90
12771;DHT22;6449;47.666;9.160;2023-05-10T05:02:54;13.10;99.90
12771;DHT22;6449;47.666;9.160;2023-05-10T05:07:48;12.90;99.90
12771;DHT22;6449;47.666;9.160;2023-05-10T05:12:41;12.80;99.90
12771;DHT22;6449;47.666;9.160;2023-05-10T05:17:34;12.80;99.90
12771;DHT22;6449;47.666;9.160;2023-05-10T05:22:29;12.90;99.90
12771;DHT22;6449;47.666;9.160;2023-05-10T05:27:23;12.90;99.90
12771;DHT22;6449;47.666;9.160;2023-05-10T05:32:17;12.90;99.90
12771;DHT22;6449;47.666;9.160;2023-05-10T05:37:13;12.90;99.90
12771;DHT22;6449;47.666;9.160;2023-05-10T05:42:09;13.00;99.90
12771;DHT22;6449;47.666;9.160;2023-05-10T05:47:02;13.00;99.90
12771;DHT22;6449;47.666;9.160;2023-05-10T05:51:58;12.90;99.90
12771;DHT22;6449;47.666;9.160;2023-05-10T05:56:54;12.80;99.90
12771;DHT22;6449;47.666;9.160;2023-05-10T06:01:52;12.90;99.90
12771;DHT22;6449;47.666;9.160;2023-05-10T06:06:46;12.80;99.90
12771;DHT22;6449;47.666;9.160;2023-05-10T06:11:39;12.80;99.90
12771;DHT22;6449;47.666;9.160;2023-05-10T06:16:32;12.80;99.90
12771;DHT22;6449;47.666;9.160;2023-05-10T06:21:27;12.70;99.90
12771;DHT22;6449;47.666;9.160;2023-05-10T06:26:20;12.70;99.90
12771;DHT22;6449;47.666;9.160;2023-05-10T06:31:14;12.80;99.90
12771;DHT22;6449;47.666;9.160;2023-05-10T06:36:07;12.70;99.90
12771;DHT22;6449;47.666;9.160;2023-05-10T06:41:02;12.80;99.90
12771;DHT22;6449;47.666;9.160;2023-05-10T06:45:56;12.70;99.90
12771;DHT22;6449;47.666;9.160;2023-05-10T06:50:49;12.90;99.90
12771;DHT22;6449;47.666;9.160;2023-05-10T06:55:43;13.00;99.90
12771;DHT22;6449;47.666;9.160;2023-05-10T07:00:38;13.00;99.90
12771;DHT22;6449;47.666;9.160;2023-05-10T07:05:32;13.10;99.90
12771;DHT22;6449;47.666;9.160;2023-05-10T07:10:26;13.10;99.90
12771;DHT22;6449;47.666;9.160;2023-05-10T07:15:19;13.20;99.90
12771;DHT22;6449;47.666;9.160;2023-05-10T07:20:14;13.40;99.90
12771;DHT22;6449;47.666;9.160;2023-05-10T07:25:08;13.40;99.90
12771;DHT22;6449;47.666;9.160;2023-05-10T07:30:03;13.40;99.90
12771;DHT22;6449;47.666;9.160;2023-05-10T07:34:56;13.20;99.90
12771;DHT22;6449;47.666;9.160;2023-05-10T07:39:51;13.10;99.90
12771;DHT22;6449;47.666;9.160;2023-05-10T07:44:44;13.20;99.90
12771;DHT22;6449;47.666;9.160;2023-05-10T07:49:38;13.30;99.90
12771;DHT22;6449;47.666;9.160;2023-05-10T07:54:32;13.30;99.90
12771;DHT22;6449;47.666;9.160;2023-05-10T07:59:27;13.40;99.90
12771;DHT22;6449;47.666;9.160;2023-05-10T08:04:20;13.50;99.90
12771;DHT22;6449;47.666;9.160;2023-05-10T08:09:14;13.60;99.90
12771;DHT22;6449;47.666;9.160;2023-05-10T08:14:07;13.80;99.90
12771;DHT22;6449;47.666;9.160;2023-05-10T08:19:02;13.80;99.90
12771;DHT22;6449;47.666;9.160;2023-05-10T08:23:55;13.70;99.90
12771;DHT22;6449;47.666;9.160;2023-05-10T08:28:49;13.60;99.90
12771;DHT22;6449;47.666;9.160;2023-05-10T08:33:42;13.50;99.90
12771;DHT22;6449;47.666;9.160;2023-05-10T08:38:39;13.40;99.90
12771;DHT22;6449;47.666;9.160;2023-05-10T08:43:32;13.40;99.90
12771;DHT22;6449;47.666;9.160;2023-05-10T08:48:29;13.50;99.90
12771;DHT22;6449;47.666;9.160;2023-05-10T08:53:27;13.50;99.90
12771;DHT22;6449;47.666;9.160;2023-05-10T08:58:25;13.50;99.90
12771;DHT22;6449;47.666;9.160;2023-05-10T09:03:19;13.70;99.90
12771;DHT22;6449;47.666;9.160;2023-05-10T09:08:13;13.90;99.90
12771;DHT22;6449;47.666;9.160;2023-05-10T09:13:09;14.10;99.90
12771;DHT22;6449;47.666;9.160;2023-05-10T09:18:05;14.30;99.90
12771;DHT22;6449;47.666;9.160;2023-05-10T09:22:58;14.40;99.90
12771;DHT22;6449;47.666;9.160;2023-05-10T09:27:52;14.50;99.90
12771;DHT22;6449;47.666;9.160;2023-05-10T09:32:48;14.50;99.90
12771;DHT22;6449;47.666;9.160;2023-05-10T09:37:46;14.70;99.90
12771;DHT22;6449;47.666;9.160;2023-05-10T09:42:49;14.80;99.90
12771;DHT22;6449;47.666;9.160;2023-05-10T09:47:45;14.80;99.90
12771;DHT22;6449;47.666;9.160;2023-05-10T09:52:48;14.80;99.90
12771;DHT22;6449;47.666;9.160;2023-05-10T09:57:42;15.00;99.90
12771;DHT22;6449;47.666;9.160;2023-05-10T10:02:36;15.30;99.90
12771;DHT22;6449;47.666;9.160;2023-05-10T10:07:29;15.50;99.90
12771;DHT22;6449;47.666;9.160;2023-05-10T10:12:25;15.60;99.90
12771;DHT22;6449;47.666;9.160;2023-05-10T10:17:19;15.50;99.90
12771;DHT22;6449;47.666;9.160;2023-05-10T10:22:14;15.30;99.90
12771;DHT22;6449;47.666;9.160;2023-05-10T10:27:20;15.30;99.90
12771;DHT22;6449;47.666;9.160;2023-05-10T10:32:25;15.30;99.90
12771;DHT22;6449;47.666;9.160;2023-05-10T10:37:43;15.40;99.90
12771;DHT22;6449;47.666;9.160;2023-05-10T10:42:45;15.50;99.90
12771;DHT22;6449;47.666;9.160;2023-05-10T10:47:41;15.60;99.90
12771;DHT22;6449;47.666;9.160;2023-05-10T10:52:36;15.60;99.90
12771;DHT22;6449;47.666;9.160;2023-05-10T10:57:45;15.30;99.90
12771;DHT22;6449;47.666;9.160;2023-05-10T11:02:44;15.20;99.90
12771;DHT22;6449;47.666;9.160;2023-05-10T11:07:51;15.10;99.90
12771;DHT22;6449;47.666;9.160;2023-05-10T11:12:53;15.00;99.90
12771;DHT22;6449;47.666;9.160;2023-05-10T11:17:52;14.90;99.90
12771;DHT22;6449;47.666;9.160;2023-05-10T11:22:50;14.90;99.90
12771;DHT22;6449;47.666;9.160;2023-05-10T11:27:44;15.10;99.90
12771;DHT22;6449;47.666;9.160;2023-05-10T11:32:41;15.10;99.90
12771;DHT22;6449;47.666;9.160;2023-05-10T11:37:36;15.10;99.90
12771;DHT22;6449;47.666;9.160;2023-05-10T11:42:30;15.20;99.90
12771;DHT22;6449;47.666;9.160;2023-05-10T11:47:25;15.20;99.90
12771;DHT22;6449;47.666;9.160;2023-05-10T11:52:20;15.10;99.90
12771;DHT22;6449;47.666;9.160;2023-05-10T11:57:13;15.20;99.90
12771;DHT22;6449;47.666;9.160;2023-05-10T12:02:06;15.30;99.90
12771;DHT22;6449;47.666;9.160;2023-05-10T12:07:00;15.40;99.90
12771;DHT22;6449;47.666;9.160;2023-05-10T12:11:56;15.30;99.90
12771;DHT22;6449;47.666;9.160;2023-05-10T12:16:50;15.40;99.90
12771;DHT22;6449;47.666;9.160;2023-05-10T12:21:44;15.50;99.90
12771;DHT22;6449;47.666;9.160;2023-05-10T12:26:37;15.60;99.90
12771;DHT22;6449;47.666;9.160;2023-05-10T12:31:32;15.60;99.90
12771;DHT22;6449;47.666;9.160;2023-05-10T12:36:25;15.60;99.90
12771;DHT22;6449;47.666;9.160;2023-05-10T12:41:19;15.60;99.90
12771;DHT22;6449;47.666;9.160;2023-05-10T12:46:14;15.60;99.90
12771;DHT22;6449;47.666;9.160;2023-05-10T12:51:11;15.50;99.90
12771;DHT22;6449;47.666;9.160;2023-05-10T12:56:07;15.50;99.90
12771;DHT22;6449;47.666;9.160;2023-05-10T13:01:01;15.50;99.90
12771;DHT22;6449;47.666;9.160;2023-05-10T13:05:54;15.50;99.90
12771;DHT22;6449;47.666;9.160;2023-05-10T13:10:49;15.40;99.90
12771;DHT22;6449;47.666;9.160;2023-05-10T13:15:43;15.40;99.90
12771;DHT22;6449;47.666;9.160;2023-05-10T13:20:36;15.50;99.90
12771;DHT22;6449;47.666;9.160;2023-05-10T13:25:30;15.50;99.90
12771;DHT22;6449;47.666;9.160;2023-05-10T13:30:24;15.60;99.90
12771;DHT22;6449;47.666;9.160;2023-05-10T13:35:18;15.70;99.90
12771;DHT22;6449;47.666;9.160;2023-05-10T13:40:11;15.80;99.90
12771;DHT22;6449;47.666;9.160;2023-05-10T13:45:07;15.90;99.90
12771;DHT22;6449;47.666;9.160;2023-05-10T13:50:03;15.90;99.90
12771;DHT22;6449;47.666;9.160;2023-05-10T13:54:56;15.80;99.90
12771;DHT22;6449;47.666;9.160;2023-05-10T13:59:50;15.80;99.90
12771;DHT22;6449;47.666;9.160;2023-05-10T14:04:45;15.70;99.90
12771;DHT22;6449;47.666;9.160;2023-05-10T14:09:40;15.80;99.90
12771;DHT22;6449;47.666;9.160;2023-05-10T14:14:33;15.60;99.90
12771;DHT22;6449;47.666;9.160;2023-05-10T14:19:26;15.50;99.90
12771;DHT22;6449;47.666;9.160;2023-05-10T14:24:22;15.40;99.90
12771;DHT22;6449;47.666;9.160;2023-05-10T14:29:17;15.40;99.90
12771;DHT22;6449;47.666;9.160;2023-05-10T14:34:10;15.40;99.90
12771;DHT22;6449;47.666;9.160;2023-05-10T14:39:03;15.30;99.90
12771;DHT22;6449;47.666;9.160;2023-05-10T14:43:58;15.30;99.90
12771;DHT22;6449;47.666;9.160;2023-05-10T14:48:53;15.20;99.90
12771;DHT22;6449;47.666;9.160;2023-05-10T14:53:46;15.20;99.90
12771;DHT22;6449;47.666;9.160;2023-05-10T14:58:39;15.10;99.90
12771;DHT22;6449;47.666;9.160;2023-05-10T15:03:32;15.10;99.90
12771;DHT22;6449;47.666;9.160;2023-05-10T15:08:28;15.20;99.90
12771;DHT22;6449;47.666;9.160;2023-05-10T15:13:21;15.10;99.90
12771;DHT22;6449;47.666;9.160;2023-05-10T15:18:15;15.10;99.90
12771;DHT22;6449;47.666;9.160;2023-05-10T15:23:08;15.10;99.90
12771;DHT22;6449;47.666;9.160;2023-05-10T15:28:04;15.10;99.90
12771;DHT22;6449;47.666;9.160;2023-05-10T15:32:57;15.10;99.90
12771;DHT22;6449;47.666;9.160;2023-05-10T15:37:50;15.10;99.90
12771;DHT22;6449;47.666;9.160;2023-05-10T15:42:44;15.10;99.90
12771;DHT22;6449;47.666;9.160;2023-05-10T15:47:38;15.10;99.90
12771;DHT22;6449;47.666;9.160;2023-05-10T15:52:32;15.10;99.90
12771;DHT22;6449;47.666;9.160;2023-05-10T15:57:25;15.20;99.90
12771;DHT22;6449;47.666;9.160;2023-05-10T16:02:19;15.20;99.90
12771;DHT22;6449;47.666;9.160;2023-05-10T16:07:16;15.20;99.90
12771;DHT22;6449;47.666;9.160;2023-05-10T16:12:09;15.20;99.90
12771;DHT22;6449;47.666;9.160;2023-05-10T16:17:02;15.10;99.90
12771;DHT22;6449;47.666;9.160;2023-05-10T16:21:56;15.20;99.90
12771;DHT22;6449;47.666;9.160;2023-05-10T16:26:51;15.10;99.90
12771;DHT22;6449;47.666;9.160;2023-05-10T16:31:45;15.20;99.90
12771;DHT22;6449;47.666;9.160;2023-05-10T16:36:38;15.10;99.90
12771;DHT22;6449;47.666;9.160;2023-05-10T16:41:32;15.10;99.90
12771;DHT22;6449;47.666;9.160;2023-05-10T16:46:27;15.00;99.90
12771;DHT22;6449;47.666;9.160;2023-05-10T16:51:20;14.90;99.90
12771;DHT22;6449;47.666;9.160;2023-05-10T16:56:13;14.90;99.90
12771;DHT22;6449;47.666;9.160;2023-05-10T17:01:08;14.80;99.90
12771;DHT22;6449;47.666;9.160;2023-05-10T17:06:04;14.80;99.90
12771;DHT22;6449;47.666;9.160;2023-05-10T17:11:00;14.60;99.90
12771;DHT22;6449;47.666;9.160;2023-05-10T17:15:54;14.70;99.90
12771;DHT22;6449;47.666;9.160;2023-05-10T17:20:49;14.60;99.90
12771;DHT22;6449;47.666;9.160;2023-05-10T17:25:44;14.50;99.90
12771;DHT22;6449;47.666;9.160;2023-05-10T17:30:37;14.50;99.90
12771;DHT22;6449;47.666;9.160;2023-05-10T17:35:31;14.50;99.90
12771;DHT22;6449;47.666;9.160;2023-05-10T17:40:24;14.50;99.90
12771;DHT22;6449;47.666;9.160;2023-05-10T17:45:19;14.40;99.90
12771;DHT22;6449;47.666;9.160;2023-05-10T17:50:13;14.30;99.90
12771;DHT22;6449;47.666;9.160;2023-05-10T17:55:07;14.20;99.90
12771;DHT22;6449;47.666;9.160;2023-05-10T18:00:01;14.10;99.90
12771;DHT22;6449;47.666;9.160;2023-05-10T18:04:58;14.00;99.90
12771;DHT22;6449;47.666;9.160;2023-05-10T18:09:52;14.00;99.90
12771;DHT22;6449;47.666;9.160;2023-05-10T18:14:45;13.80;99.90
12771;DHT22;6449;47.666;9.160;2023-05-10T18:19:39;13.80;99.90
12771;DHT22;6449;47.666;9.160;2023-05-10T18:24:33;13.70;99.90
12771;DHT22;6449;47.666;9.160;2023-05-10T18:29:31;13.40;99.90
12771;DHT22;6449;47.666;9.160;2023-05-10T18:34:24;13.50;99.90
12771;DHT22;6449;47.666;9.160;2023-05-10T18:39:17;13.30;99.90
12771;DHT22;6449;47.666;9.160;2023-05-10T18:44:19;13.20;99.90
12771;DHT22;6449;47.666;9.160;2023-05-10T18:49:18;13.10;99.90
12771;DHT22;6449;47.666;9.160;2023-05-10T18:54:11;13.10;99.90
12771;DHT22;6449;47.666;9.160;2023-05-10T18:59:06;12.80;99.90
12771;DHT22;6449;47.666;9.160;2023-05-10T19:04:01;12.90;99.90
12771;DHT22;6449;47.666;9.160;2023-05-10T19:08:54;12.90;99.90
12771;DHT22;6449;47.666;9.160;2023-05-10T19:13:48;12.90;99.90
12771;DHT22;6449;47.666;9.160;2023-05-10T19:18:41;12.80;99.90
12771;DHT22;6449;47.666;9.160;2023-05-10T19:23:37;12.50;99.90
12771;DHT22;6449;47.666;9.160;2023-05-10T19:28:32;12.50;99.90
12771;DHT22;6449;47.666;9.160;2023-05-10T19:33:27;12.50;99.90
12771;DHT22;6449;47.666;9.160;2023-05-10T19:38:21;12.50;99.90
12771;DHT22;6449;47.666;9.160;2023-05-10T19:43:16;12.30;99.90
12771;DHT22;6449;47.666;9.160;2023-05-10T19:48:10;12.30;99.90
12771;DHT22;6449;47.666;9.160;2023-05-10T19:53:04;12.30;99.90
12771;DHT22;6449;47.666;9.160;2023-05-10T19:57:57;12.30;99.90
12771;DHT22;6449;47.666;9.160;2023-05-10T20:02:54;12.40;99.90
12771;DHT22;6449;47.666;9.160;2023-05-10T20:07:47;12.30;99.90
12771;DHT22;6449;47.666;9.160;2023-05-10T20:12:41;12.30;99.90
12771;DHT22;6449;47.666;9.160;2023-05-10T20:17:40;12.30;99.90
12771;DHT22;6449;47.666;9.160;2023-05-10T20:22:35;12.40;99.90
12771;DHT22;6449;47.666;9.160;2023-05-10T20:27:28;12.30;99.90
12771;DHT22;6449;47.666;9.160;2023-05-10T20:32:21;12.10;99.90
12771;DHT22;6449;47.666;9.160;2023-05-10T20:37:15;12.20;99.90
12771;DHT22;6449;47.666;9.160;2023-05-10T20:42:10;12.10;99.90
12771;DHT22;6449;47.666;9.160;2023-05-10T20:47:03;12.20;99.90
12771;DHT22;6449;47.666;9.160;2023-05-10T20:51:57;12.20;99.90
12771;DHT22;6449;47.666;9.160;2023-05-10T20:56:51;12.10;99.90
12771;DHT22;6449;47.666;9.160;2023-05-10T21:01:46;12.10;99.90
12771;DHT22;6449;47.666;9.160;2023-05-10T21:06:40;12.30;99.90
12771;DHT22;6449;47.666;9.160;2023-05-10T21:11:33;12.20;99.90
12771;DHT22;6449;47.666;9.160;2023-05-10T21:16:27;12.20;99.90
12771;DHT22;6449;47.666;9.160;2023-05-10T21:21:21;12.00;99.90
12771;DHT22;6449;47.666;9.160;2023-05-10T21:26:15;11.80;99.90
12771;DHT22;6449;47.666;9.160;2023-05-10T21:31:09;11.80;99.90
12771;DHT22;6449;47.666;9.160;2023-05-10T21:36:03;11.90;99.90
12771;DHT22;6449;47.666;9.160;2023-05-10T21:40:58;11.80;99.90
12771;DHT22;6449;47.666;9.160;2023-05-10T21:45:51;11.90;99.90
12771;DHT22;6449;47.666;9.160;2023-05-10T21:50:45;11.70;99.90
12771;DHT22;6449;47.666;9.160;2023-05-10T21:55:39;11.70;99.90
12771;DHT22;6449;47.666;9.160;2023-05-10T22:00:34;11.80;99.90
12771;DHT22;6449;47.666;9.160;2023-05-10T22:05:27;11.90;99.90
12771;DHT22;6449;47.666;9.160;2023-05-10T22:10:21;12.00;99.90
12771;DHT22;6449;47.666;9.160;2023-05-10T22:15:14;12.00;99.90
12771;DHT22;6449;47.666;9.160;2023-05-10T22:20:09;11.90;99.90
12771;DHT22;6449;47.666;9.160;2023-05-10T22:25:04;12.00;99.90
12771;DHT22;6449;47.666;9.160;2023-05-10T22:29:58;12.00;99.90
12771;DHT22;6449;47.666;9.160;2023-05-10T22:34:52;12.00;99.90
12771;DHT22;6449;47.666;9.160;2023-05-10T22:39:47;12.00;99.90
12771;DHT22;6449;47.666;9.160;2023-05-10T22:44:41;11.90;99.90
12771;DHT22;6449;47.666;9.160;2023-05-10T22:49:35;12.00;99.90
12771;DHT22;6449;47.666;9.160;2023-05-10T22:54:28;12.00;99.90
12771;DHT22;6449;47.666;9.160;2023-05-10T22:59:23;11.90;99.90
12771;DHT22;6449;47.666;9.160;2023-05-10T23:04:16;11.80;99.90
12771;DHT22;6449;47.666;9.160;2023-05-10T23:09:09;11.80;99.90
12771;DHT22;6449;47.666;9.160;2023-05-10T23:14:03;11.70;99.90
12771;DHT22;6449;47.666;9.160;2023-05-10T23:18:57;11.80;99.90
12771;DHT22;6449;47.666;9.160;2023-05-10T23:23:51;11.80;99.90
12771;DHT22;6449;47.666;9.160;2023-05-10T23:28:45;11.80;99.90
12771;DHT22;6449;47.666;9.160;2023-05-10T23:33:39;11.70;99.90
12771;DHT22;6449;47.666;9.160;2023-05-10T23:38:33;11.80;99.90
12771;DHT22;6449;47.666;9.160;2023-05-10T23:43:27;11.70;99.90
12771;DHT22;6449;47.666;9.160;2023-05-10T23:48:20;11.70;99.90
12771;DHT22;6449;47.666;9.160;2023-05-10T23:53:15;11.60;99.90
12771;DHT22;6449;47.666;9.160;2023-05-10T23:58:10;11.60;99.90
